createdAt,value
2022-09-07T00:01:09.211Z,42.40
2022-09-07T00:03:37.879Z,34.63
2022-09-07T00:06:10.936Z,33.33
2022-09-07T00:08:39.926Z,19.90
2022-09-07T00:11:12.097Z,21.77
2022-09-07T00:13:41.453Z,42.97
2022-09-07T00:16:15.625Z,37.13
2022-09-07T00:18:46.107Z,26.33
2022-09-07T00:21:16.043Z,31.77
2022-09-07T00:23:44.767Z,34.78
2022-09-07T00:26:16.368Z,37.28
2022-09-07T00:28:45.355Z,52.22
2022-09-07T00:31:17.469Z,38.72
2022-09-07T00:33:46.489Z,40.50
2022-09-07T00:36:14.962Z,37.72
2022-09-07T00:38:43.480Z,34.53
2022-09-07T00:41:12.246Z,48.25
2022-09-07T00:43:42.920Z,36.95
2022-09-07T00:46:16.349Z,41.90
2022-09-07T00:48:52.183Z,43.30
2022-09-07T00:51:28.988Z,43.63
2022-09-07T00:53:59.563Z,47.97
2022-09-07T00:56:33.264Z,54.30
2022-09-07T00:59:01.702Z,34.80
2022-09-07T01:01:31.650Z,42.88
2022-09-07T01:04:02.308Z,36.15
2022-09-07T01:06:33.536Z,51.78
2022-09-07T01:09:05.022Z,46.45
2022-09-07T01:11:35.063Z,50.28
2022-09-07T01:14:05.161Z,42.42
2022-09-07T01:16:54.910Z,39.83
2022-09-07T01:19:54.330Z,35.78
2022-09-07T01:22:38.727Z,41.55
2022-09-07T01:25:12.055Z,36.25
2022-09-07T01:28:11.967Z,52.92
2022-09-07T01:30:43.741Z,49.97
2022-09-07T01:33:24.704Z,60.50
2022-09-07T01:35:59.808Z,38.13
2022-09-07T01:38:36.577Z,44.55
2022-09-07T01:41:08.825Z,69.85
2022-09-07T01:43:46.706Z,60.75
2022-09-07T01:46:20.029Z,42.75
2022-09-07T01:48:52.511Z,49.50
2022-09-07T01:51:24.303Z,55.97
2022-09-07T01:53:57.737Z,33.20
2022-09-07T01:56:31.225Z,27.05
2022-09-07T01:59:04.566Z,29.15
2022-09-07T02:01:37.898Z,30.52
2022-09-07T02:04:12.018Z,34.78
2022-09-07T02:06:45.828Z,29.35
2022-09-07T02:09:19.921Z,26.13
2022-09-07T02:11:50.263Z,28.48
2022-09-07T02:14:25.898Z,33.47
2022-09-07T02:16:59.854Z,42.60
2022-09-07T02:19:32.981Z,58.88
2022-09-07T02:22:05.859Z,36.85
2022-09-07T02:24:37.904Z,44.35
2022-09-07T02:27:12.271Z,27.35
2022-09-07T02:29:43.383Z,24.45
2022-09-07T02:32:11.660Z,27.90
2022-09-07T02:34:40.153Z,30.25
2022-09-07T02:37:11.008Z,30.00
2022-09-07T02:39:39.355Z,28.52
2022-09-07T02:42:07.902Z,34.05
2022-09-07T02:44:38.481Z,29.98
2022-09-07T02:47:21.009Z,35.10
2022-09-07T02:50:17.356Z,30.52
2022-09-07T02:52:56.111Z,32.63
2022-09-07T02:55:34.277Z,26.42
2022-09-07T02:58:15.038Z,25.48
2022-09-07T03:00:51.190Z,33.30
2022-09-07T03:03:27.744Z,27.40
2022-09-07T03:06:01.103Z,29.88
2022-09-07T03:08:33.734Z,25.50
2022-09-07T03:11:02.583Z,23.55
2022-09-07T03:13:31.176Z,20.17
2022-09-07T03:15:59.807Z,27.92
2022-09-07T03:18:30.334Z,25.10
2022-09-07T03:20:58.540Z,15.25
2022-09-07T03:23:26.715Z,22.70
2022-09-07T03:25:54.753Z,19.52
2022-09-07T03:28:23.030Z,14.05
2022-09-07T03:30:51.155Z,28.38
2022-09-07T03:33:19.305Z,18.95
2022-09-07T03:35:58.784Z,23.90
2022-09-07T03:38:27.062Z,19.05
2022-09-07T03:41:02.904Z,25.55
2022-09-07T03:43:32.721Z,24.70
2022-09-07T03:46:02.243Z,25.30
2022-09-07T03:48:32.518Z,23.70
2022-09-07T03:51:03.813Z,27.83
2022-09-07T03:53:32.866Z,20.25
2022-09-07T03:56:02.301Z,20.70
2022-09-07T03:58:32.146Z,21.70
2022-09-07T04:01:01.764Z,25.38
2022-09-07T04:03:30.251Z,27.35
2022-09-07T04:06:01.118Z,26.10
2022-09-07T04:08:30.324Z,21.05
2022-09-07T04:10:59.498Z,28.88
2022-09-07T04:13:29.084Z,21.98
2022-09-07T04:15:58.095Z,25.77
2022-09-07T04:18:26.928Z,26.10
2022-09-07T04:20:59.513Z,26.77
2022-09-07T04:23:29.280Z,22.27
2022-09-07T04:25:57.484Z,21.65
2022-09-07T04:28:25.716Z,22.42
2022-09-07T04:30:53.938Z,19.42
2022-09-07T04:33:22.183Z,26.85
2022-09-07T04:35:50.357Z,28.77
2022-09-07T04:38:18.692Z,17.33
2022-09-07T04:40:48.347Z,21.60
2022-09-07T04:43:16.503Z,18.20
2022-09-07T04:45:44.688Z,13.75
2022-09-07T04:48:12.949Z,14.73
2022-09-07T04:50:41.483Z,20.17
2022-09-07T04:53:09.593Z,15.13
2022-09-07T04:55:37.761Z,19.42
2022-09-07T04:58:07.400Z,15.18
2022-09-07T05:00:36.706Z,13.60
2022-09-07T05:03:04.823Z,19.42
2022-09-07T05:05:32.992Z,12.60
2022-09-07T05:08:01.091Z,19.48
2022-09-07T05:10:29.208Z,27.70
2022-09-07T05:12:57.395Z,15.32
2022-09-07T05:15:29.762Z,15.07
2022-09-07T05:17:57.998Z,21.52
2022-09-07T05:20:26.352Z,15.50
2022-09-07T05:22:59.682Z,15.20
2022-09-07T05:25:29.155Z,12.82
2022-09-07T05:27:57.506Z,18.00
2022-09-07T05:33:16.599Z,19.77
2022-09-07T05:35:44.782Z,21.02
2022-09-07T05:38:12.894Z,15.38
2022-09-07T05:40:41.124Z,11.27
2022-09-07T05:43:10.537Z,16.73
2022-09-07T05:45:40.158Z,22.25
2022-09-07T05:48:08.980Z,16.40
2022-09-07T05:50:37.189Z,17.38
2022-09-07T05:53:05.431Z,12.05
2022-09-07T05:55:33.614Z,18.02
2022-09-07T05:58:01.778Z,15.25
2022-09-07T06:00:29.932Z,14.85
2022-09-07T06:02:59.513Z,16.63
2022-09-07T06:05:27.699Z,16.63
2022-09-07T06:07:56.179Z,12.48
2022-09-07T06:13:12.462Z,15.65
2022-09-07T06:15:40.639Z,16.90
2022-09-07T06:18:10.173Z,16.60
2022-09-07T06:20:38.260Z,18.33
2022-09-07T06:23:07.333Z,18.23
2022-09-07T06:25:35.669Z,14.18
2022-09-07T06:28:04.262Z,24.52
2022-09-07T06:30:32.412Z,17.20
2022-09-07T06:33:00.507Z,15.10
2022-09-07T06:35:30.213Z,20.88
2022-09-07T06:37:58.262Z,23.48
2022-09-07T06:40:26.401Z,13.35
2022-09-07T06:42:54.642Z,19.67
2022-09-07T06:45:22.818Z,18.38
2022-09-07T06:47:54.786Z,17.58
2022-09-07T06:50:23.202Z,19.42
2022-09-07T06:55:45.110Z,17.77
2022-09-07T06:58:13.193Z,13.07
2022-09-07T07:00:42.178Z,15.57
2022-09-07T07:03:10.577Z,15.93
2022-09-07T07:05:38.800Z,18.08
2022-09-07T07:08:08.375Z,17.67
2022-09-07T07:10:40.366Z,26.13
2022-09-07T07:13:08.622Z,20.75
2022-09-07T07:15:36.844Z,15.23
2022-09-07T07:18:19.792Z,11.98
2022-09-07T07:20:48.995Z,13.38
2022-09-07T07:23:18.574Z,16.38
2022-09-07T07:25:46.762Z,14.38
2022-09-07T07:31:09.772Z,19.23
2022-09-07T07:33:40.009Z,17.30
2022-09-07T07:36:10.321Z,13.32
2022-09-07T07:46:49.543Z,17.33
2022-09-07T07:49:18.151Z,19.58
2022-09-07T07:54:37.223Z,21.17
2022-09-07T07:57:05.805Z,22.73
2022-09-07T07:59:33.983Z,27.25
2022-09-07T08:02:05.268Z,21.98
2022-09-07T08:04:34.820Z,29.88
2022-09-07T08:07:09.654Z,21.83
2022-09-07T08:09:41.597Z,24.40
2022-09-07T08:12:11.451Z,29.70
2022-09-07T08:14:41.579Z,27.85
2022-09-07T08:17:10.734Z,25.15
2022-09-07T08:19:39.095Z,35.08
2022-09-07T08:22:07.635Z,27.00
2022-09-07T08:24:36.134Z,30.17
2022-09-07T08:27:05.921Z,38.35
2022-09-07T08:29:35.468Z,39.85
2022-09-07T08:32:06.782Z,33.72
2022-09-07T08:34:37.436Z,40.92
2022-09-07T08:37:05.667Z,40.35
2022-09-07T08:39:33.913Z,39.42
2022-09-07T08:42:26.930Z,36.65
2022-09-07T08:45:00.435Z,29.08
2022-09-07T08:47:36.455Z,28.33
2022-09-07T08:50:07.816Z,36.47
2022-09-07T08:52:47.355Z,35.03
2022-09-07T08:55:20.650Z,23.63
2022-09-07T08:57:56.726Z,20.77
2022-09-07T09:00:24.862Z,28.45
2022-09-07T09:05:49.146Z,19.00
2022-09-07T09:08:38.095Z,16.20
2022-09-07T09:11:11.751Z,25.02
2022-09-07T09:14:02.713Z,28.35
2022-09-07T09:16:36.914Z,22.58
2022-09-07T09:19:20.208Z,26.98
2022-09-07T09:21:48.567Z,23.48
2022-09-07T09:24:19.170Z,24.27
2022-09-07T09:26:53.037Z,19.20
2022-09-07T09:29:23.942Z,32.50
2022-09-07T09:31:53.660Z,31.95
2022-09-07T09:34:24.029Z,23.17
2022-09-07T09:36:57.724Z,28.25
2022-09-07T09:39:28.986Z,31.43
2022-09-07T09:42:00.234Z,24.95
2022-09-07T09:44:35.212Z,32.10
2022-09-07T09:49:53.736Z,29.95
2022-09-07T09:52:38.088Z,22.85
2022-09-07T09:55:40.892Z,24.98
2022-09-07T10:01:27.334Z,32.15
2022-09-07T10:03:57.700Z,22.85
2022-09-07T10:06:27.875Z,32.70
2022-09-07T10:08:58.692Z,17.70
2022-09-07T10:14:35.256Z,28.10
2022-09-07T10:17:13.207Z,35.38
2022-09-07T10:19:43.924Z,20.95
2022-09-07T10:22:34.785Z,29.03
2022-09-07T10:25:05.264Z,28.37
2022-09-07T10:27:35.996Z,28.90
2022-09-07T10:30:11.088Z,14.65
2022-09-07T10:33:01.527Z,26.83
2022-09-07T10:35:33.878Z,37.40
2022-09-07T10:38:15.117Z,35.53
2022-09-07T10:40:47.323Z,23.55
2022-09-07T10:43:37.388Z,24.27
2022-09-07T10:49:28.651Z,23.38
2022-09-07T10:52:13.790Z,23.42
2022-09-07T10:54:51.185Z,23.48
2022-09-07T10:57:33.783Z,20.05
2022-09-07T11:00:09.857Z,25.10
2022-09-07T11:06:03.623Z,24.02
2022-09-07T11:14:25.773Z,26.35
2022-09-07T11:16:58.543Z,28.25
2022-09-07T11:19:35.663Z,23.52
2022-09-07T11:22:17.126Z,15.32
2022-09-07T11:25:29.093Z,29.13
2022-09-07T11:27:42.085Z,11.32
2022-09-07T11:30:19.899Z,28.00
2022-09-07T11:32:56.968Z,15.57
2022-09-07T11:35:33.504Z,27.17
2022-09-07T11:38:11.907Z,22.58
2022-09-07T11:40:45.892Z,23.50
2022-09-07T11:43:20.879Z,18.77
2022-09-07T11:45:53.909Z,27.50
2022-09-07T11:48:31.105Z,27.05
2022-09-07T11:51:04.733Z,26.60
2022-09-07T11:53:39.594Z,25.55
2022-09-07T11:56:13.581Z,25.63
2022-09-07T11:59:07.777Z,35.97
2022-09-07T12:01:49.151Z,28.55
2022-09-07T12:04:34.864Z,23.90
2022-09-07T12:07:32.716Z,18.00
2022-09-07T12:10:32.377Z,19.73
2022-09-07T12:13:17.707Z,23.48
2022-09-07T12:15:53.885Z,22.00
2022-09-07T12:18:37.251Z,26.13
2022-09-07T12:21:05.536Z,17.80
2022-09-07T12:23:34.706Z,23.02
2022-09-07T12:26:40.089Z,23.27
2022-09-07T12:29:24.065Z,22.92
2022-09-07T12:32:52.809Z,28.10
2022-09-07T12:34:52.534Z,32.17
2022-09-07T12:37:50.576Z,19.50
2022-09-07T12:40:59.098Z,16.58
2022-09-07T12:43:58.506Z,18.15
2022-09-07T12:47:03.213Z,21.67
2022-09-07T12:49:46.101Z,15.77
2022-09-07T12:52:37.978Z,20.88
2022-09-07T12:55:29.709Z,27.58
2022-09-07T12:58:12.789Z,27.48
2022-09-07T13:01:06.651Z,26.35
2022-09-07T13:04:05.056Z,25.65
2022-09-07T13:07:08.275Z,25.30
2022-09-07T13:09:37.819Z,24.63
2022-09-07T13:15:49.848Z,20.60
2022-09-07T13:18:43.800Z,25.17
2022-09-07T13:21:50.129Z,24.50
2022-09-07T13:24:55.301Z,27.63
2022-09-07T13:27:35.157Z,29.40
2022-09-07T13:30:21.005Z,21.30
2022-09-07T13:35:37.897Z,22.30
2022-09-07T13:38:06.477Z,27.85
2022-09-07T13:40:40.516Z,16.15
2022-09-07T13:43:17.749Z,22.75
2022-09-07T13:46:00.137Z,22.98
2022-09-07T13:48:35.552Z,17.08
2022-09-07T13:51:10.545Z,27.48
2022-09-07T13:53:51.242Z,18.58
2022-09-07T13:56:30.401Z,23.13
2022-09-07T13:58:58.602Z,31.70
2022-09-07T14:01:28.402Z,31.05
2022-09-07T14:03:59.607Z,27.58
2022-09-07T14:06:33.655Z,18.85
2022-09-07T14:09:05.555Z,20.92
2022-09-07T14:11:42.875Z,23.95
2022-09-07T14:14:15.045Z,20.13
2022-09-07T14:16:45.163Z,23.38
2022-09-07T14:19:25.944Z,34.45
2022-09-07T14:21:59.261Z,32.07
2022-09-07T14:24:32.390Z,35.15
2022-09-07T14:27:02.279Z,38.20
2022-09-07T14:29:32.900Z,33.80
2022-09-07T14:32:03.120Z,26.53
2022-09-07T14:34:35.355Z,27.08
2022-09-07T14:37:07.323Z,29.30
2022-09-07T14:39:40.089Z,36.30
2022-09-07T14:42:12.757Z,28.88
2022-09-07T14:44:45.093Z,31.75
2022-09-07T14:47:26.295Z,26.45
2022-09-07T14:49:56.885Z,34.97
2022-09-07T14:52:37.986Z,26.83
2022-09-07T14:55:28.993Z,39.78
2022-09-07T14:58:25.169Z,34.50
2022-09-07T15:03:59.046Z,31.15
2022-09-07T15:09:30.938Z,27.17
2022-09-07T15:12:14.730Z,24.67
2022-09-07T15:14:44.438Z,26.33
2022-09-07T15:20:41.532Z,33.70
2022-09-07T15:23:12.703Z,24.67
2022-09-07T15:25:46.499Z,15.75
2022-09-07T15:34:10.008Z,14.15
2022-09-07T15:36:40.352Z,17.17
2022-09-07T15:39:09.280Z,11.27
2022-09-07T15:41:37.358Z,22.15
2022-09-07T15:44:05.790Z,19.90
2022-09-07T15:46:37.174Z,21.63
2022-09-07T15:49:05.696Z,20.60
2022-09-07T15:54:22.103Z,17.23
2022-09-07T15:59:38.390Z,26.27
2022-09-07T16:03:04.662Z,27.98
2022-09-07T16:04:56.355Z,24.60
2022-09-07T16:08:24.799Z,20.55
2022-09-07T16:10:14.042Z,24.33
2022-09-07T16:15:30.376Z,31.48
2022-09-07T16:17:59.937Z,29.67
2022-09-07T16:20:31.930Z,21.27
2022-09-07T16:23:17.012Z,29.58
2022-09-07T16:25:57.316Z,34.70
2022-09-07T16:28:25.998Z,30.02
2022-09-07T16:30:54.625Z,25.67
2022-09-07T16:33:31.641Z,38.58
2022-09-07T16:36:06.717Z,28.10
2022-09-07T16:38:50.365Z,29.30
2022-09-07T16:41:20.743Z,27.08
2022-09-07T16:43:48.927Z,35.05
2022-09-07T16:46:18.931Z,39.50
2022-09-07T16:48:48.962Z,32.30
2022-09-07T16:51:19.767Z,30.55
2022-09-07T16:53:48.974Z,26.40
2022-09-07T16:56:19.258Z,26.90
2022-09-07T16:58:49.260Z,28.52
2022-09-07T17:01:20.075Z,27.23
2022-09-07T17:03:51.213Z,37.53
2022-09-07T17:06:20.938Z,41.17
2022-09-07T17:08:49.723Z,31.85
2022-09-07T17:11:19.838Z,37.00
2022-09-07T17:13:48.303Z,33.00
2022-09-07T17:16:19.804Z,27.92
2022-09-07T17:21:40.238Z,34.58
2022-09-07T17:24:10.005Z,23.98
2022-09-07T17:26:38.483Z,31.08
2022-09-07T17:29:07.443Z,42.60
2022-09-07T17:34:26.700Z,33.33
2022-09-07T17:36:54.914Z,25.48
2022-09-07T17:39:23.560Z,26.42
2022-09-07T17:41:53.033Z,24.40
2022-09-07T17:44:21.752Z,20.50
2022-09-07T17:46:50.082Z,31.20
2022-09-07T17:49:18.518Z,32.28
2022-09-07T17:51:48.735Z,23.92
2022-09-07T17:54:18.428Z,28.17
2022-09-07T17:56:47.718Z,32.08
2022-09-07T18:02:04.097Z,23.35
2022-09-07T18:04:32.203Z,31.42
2022-09-07T18:07:01.734Z,32.47
2022-09-07T18:09:30.203Z,36.75
2022-09-07T18:11:58.284Z,29.85
2022-09-07T18:14:27.088Z,32.20
2022-09-07T18:16:55.300Z,30.63
2022-09-07T18:19:24.424Z,40.42
2022-09-07T18:21:53.370Z,32.53
2022-09-07T18:24:25.713Z,31.45
2022-09-07T18:26:55.473Z,39.90
2022-09-07T18:29:32.273Z,33.50
2022-09-07T18:32:05.602Z,33.33
2022-09-07T18:34:36.052Z,43.78
2022-09-07T18:37:04.758Z,38.45
2022-09-07T18:39:35.649Z,46.00
2022-09-07T18:42:04.109Z,47.38
2022-09-07T18:47:27.954Z,37.13
2022-09-07T18:49:56.611Z,32.13
2022-09-07T18:55:14.291Z,39.08
2022-09-07T18:57:42.705Z,29.20
2022-09-07T19:00:13.197Z,33.95
2022-09-07T19:02:41.508Z,36.00
2022-09-07T19:07:59.643Z,38.10
2022-09-07T19:10:29.430Z,30.77
2022-09-07T19:12:57.498Z,31.52
2022-09-07T19:15:25.651Z,36.90
2022-09-07T19:17:53.800Z,27.95
2022-09-07T19:20:21.941Z,20.55
2022-09-07T19:22:50.019Z,25.08
2022-09-07T19:25:19.455Z,23.13
2022-09-07T19:27:49.109Z,27.77
2022-09-07T19:30:17.744Z,27.55
2022-09-07T19:32:45.934Z,28.65
2022-09-07T19:35:14.218Z,25.42
2022-09-07T19:37:42.702Z,35.45
2022-09-07T19:40:14.797Z,18.52
2022-09-07T19:42:48.161Z,24.90
2022-09-07T19:45:16.633Z,29.30
2022-09-07T19:47:44.901Z,24.38
2022-09-07T19:50:13.132Z,24.20
2022-09-07T19:52:41.500Z,27.15
2022-09-07T19:55:10.399Z,23.58
2022-09-07T19:57:38.644Z,20.65
2022-09-07T20:00:10.276Z,28.73
2022-09-07T20:02:38.396Z,21.92
2022-09-07T20:05:07.942Z,16.98
2022-09-07T20:07:36.116Z,24.27
2022-09-07T20:10:04.555Z,29.08
2022-09-07T20:12:32.643Z,21.77
2022-09-07T20:15:00.687Z,26.73
2022-09-07T20:17:35.085Z,24.27
2022-09-07T20:20:04.554Z,28.02
2022-09-07T20:22:33.664Z,28.55
2022-09-07T20:25:01.874Z,31.17
2022-09-07T20:27:30.685Z,25.13
2022-09-07T20:29:58.843Z,29.27
2022-09-07T20:32:28.333Z,30.20
2022-09-07T20:34:58.061Z,24.40
2022-09-07T20:37:28.278Z,32.83
2022-09-07T20:39:56.628Z,30.35
2022-09-07T20:42:25.240Z,39.97
2022-09-07T20:44:53.597Z,30.77
2022-09-07T20:47:21.791Z,23.50
2022-09-07T20:49:52.259Z,25.45
2022-09-07T20:52:21.874Z,28.20
2022-09-07T20:54:50.163Z,26.50
2022-09-07T20:57:18.489Z,26.00
2022-09-07T20:59:46.771Z,22.70
2022-09-07T21:02:14.987Z,11.23
2022-09-07T21:04:43.640Z,26.15
2022-09-07T21:07:11.969Z,18.90
2022-09-07T21:09:42.497Z,26.13
2022-09-07T21:12:10.942Z,17.27
2022-09-07T21:14:39.082Z,22.48
2022-09-07T21:17:07.484Z,22.52
2022-09-07T21:19:36.926Z,28.48
2022-09-07T21:22:05.035Z,21.48
2022-09-07T21:24:33.309Z,19.55
2022-09-07T21:27:02.904Z,23.05
2022-09-07T21:29:31.079Z,20.13
2022-09-07T21:31:59.106Z,25.15
2022-09-07T21:34:27.473Z,17.40
2022-09-07T21:36:55.554Z,22.83
2022-09-07T21:39:23.987Z,30.45
2022-09-07T21:41:52.084Z,27.02
2022-09-07T21:44:22.546Z,18.73
2022-09-07T21:46:51.241Z,24.13
2022-09-07T21:49:19.399Z,15.73
2022-09-07T21:51:47.572Z,30.48
2022-09-07T21:54:16.075Z,22.63
2022-09-07T21:56:46.665Z,23.50
2022-09-07T21:59:15.132Z,16.52
2022-09-07T22:01:44.735Z,19.33
2022-09-07T22:04:13.573Z,17.85
2022-09-07T22:06:41.701Z,28.52
2022-09-07T22:09:09.799Z,22.63
2022-09-07T22:11:37.904Z,22.17
2022-09-07T22:14:06.986Z,29.98
2022-09-07T22:16:36.287Z,28.40
2022-09-07T22:19:06.543Z,31.25
2022-09-07T22:21:35.680Z,29.35
2022-09-07T22:24:06.286Z,20.00
2022-09-07T22:26:37.763Z,20.23
2022-09-07T22:29:08.284Z,28.00
2022-09-07T22:31:38.541Z,26.05
2022-09-07T22:34:09.476Z,32.45
2022-09-07T22:36:39.869Z,24.08
2022-09-07T22:39:10.419Z,25.42
2022-09-07T22:41:40.049Z,27.40
2022-09-07T22:44:11.387Z,22.77
2022-09-07T22:49:12.304Z,30.60
2022-09-07T22:51:40.782Z,30.70
2022-09-07T22:54:09.131Z,21.92
2022-09-07T22:56:38.593Z,23.25
2022-09-07T22:59:08.935Z,24.13
2022-09-07T23:01:38.053Z,29.73
2022-09-07T23:04:07.051Z,27.15
2022-09-07T23:06:38.755Z,20.15
2022-09-07T23:09:09.420Z,22.77
2022-09-07T23:11:37.692Z,24.43
2022-09-07T23:14:09.722Z,31.02
2022-09-07T23:16:37.919Z,18.67
2022-09-07T23:19:06.096Z,26.05
2022-09-07T23:21:34.432Z,29.80
2022-09-07T23:24:04.276Z,28.60
2022-09-07T23:26:33.603Z,29.02
2022-09-07T23:29:03.462Z,22.98
2022-09-07T23:31:33.392Z,17.85
2022-09-07T23:34:02.604Z,22.15
2022-09-07T23:36:31.506Z,22.83
2022-09-07T23:39:01.168Z,25.55
2022-09-07T23:41:30.626Z,21.63
2022-09-07T23:43:59.090Z,23.63
2022-09-07T23:46:27.467Z,28.67
2022-09-07T23:48:55.780Z,19.38
2022-09-07T23:51:24.822Z,21.30
2022-09-07T23:53:53.745Z,22.75
2022-09-07T23:56:24.594Z,22.67
2022-09-07T23:58:54.558Z,16.48
